sensor_id;sensor_type;location;lat;lon;timestamp;P1;durP1;ratioP1;P2;durP2;ratioP2
19016;SDS011;9641;51.494;6.670;2023-08-20T00:01:19;9.27;;;4.63;;
19016;SDS011;9641;51.494;6.670;2023-08-20T00:03:49;8.57;;;4.55;;
19016;SDS011;9641;51.494;6.670;2023-08-20T00:06:18;6.82;;;4.68;;
19016;SDS011;9641;51.494;6.670;2023-08-20T00:08:45;8.02;;;4.22;;
19016;SDS011;9641;51.494;6.670;2023-08-20T00:11:14;7.68;;;4.80;;
19016;SDS011;9641;51.494;6.670;2023-08-20T00:13:41;5.50;;;4.50;;
19016;SDS011;9641;51.494;6.670;2023-08-20T00:16:09;6.95;;;4.47;;
19016;SDS011;9641;51.494;6.670;2023-08-20T00:18:37;7.13;;;4.10;;
19016;SDS011;9641;51.494;6.670;2023-08-20T00:21:04;4.93;;;4.40;;
19016;SDS011;9641;51.494;6.670;2023-08-20T00:23:33;11.85;;;4.70;;
19016;SDS011;9641;51.494;6.670;2023-08-20T00:26:00;7.22;;;4.95;;
19016;SDS011;9641;51.494;6.670;2023-08-20T00:28:29;9.85;;;5.00;;
19016;SDS011;9641;51.494;6.670;2023-08-20T00:30:58;7.30;;;4.53;;
19016;SDS011;9641;51.494;6.670;2023-08-20T00:33:26;5.43;;;4.93;;
19016;SDS011;9641;51.494;6.670;2023-08-20T00:35:53;6.32;;;4.88;;
19016;SDS011;9641;51.494;6.670;2023-08-20T00:38:23;9.43;;;4.53;;
19016;SDS011;9641;51.494;6.670;2023-08-20T00:40:50;8.35;;;4.75;;
19016;SDS011;9641;51.494;6.670;2023-08-20T00:43:17;10.07;;;5.40;;
19016;SDS011;9641;51.494;6.670;2023-08-20T00:45:45;8.70;;;5.25;;
19016;SDS011;9641;51.494;6.670;2023-08-20T00:48:12;11.50;;;5.40;;
19016;SDS011;9641;51.494;6.670;2023-08-20T00:50:39;7.60;;;5.15;;
19016;SDS011;9641;51.494;6.670;2023-08-20T00:53:07;8.60;;;5.32;;
19016;SDS011;9641;51.494;6.670;2023-08-20T00:55:36;8.85;;;5.25;;
19016;SDS011;9641;51.494;6.670;2023-08-20T00:58:03;6.68;;;4.88;;
19016;SDS011;9641;51.494;6.670;2023-08-20T01:00:32;8.27;;;5.07;;
19016;SDS011;9641;51.494;6.670;2023-08-20T01:03:00;5.78;;;4.63;;
19016;SDS011;9641;51.494;6.670;2023-08-20T01:05:29;7.82;;;5.57;;
19016;SDS011;9641;51.494;6.670;2023-08-20T01:08:04;8.48;;;4.55;;
19016;SDS011;9641;51.494;6.670;2023-08-20T01:10:45;6.28;;;4.32;;
19016;SDS011;9641;51.494;6.670;2023-08-20T01:13:18;9.07;;;5.32;;
19016;SDS011;9641;51.494;6.670;2023-08-20T01:15:45;6.68;;;4.78;;
19016;SDS011;9641;51.494;6.670;2023-08-20T01:18:14;6.00;;;4.03;;
19016;SDS011;9641;51.494;6.670;2023-08-20T01:20:43;7.63;;;5.10;;
19016;SDS011;9641;51.494;6.670;2023-08-20T01:26:33;6.15;;;4.50;;
19016;SDS011;9641;51.494;6.670;2023-08-20T01:29:14;5.18;;;4.68;;
19016;SDS011;9641;51.494;6.670;2023-08-20T01:31:41;9.10;;;4.93;;
19016;SDS011;9641;51.494;6.670;2023-08-20T01:34:11;8.70;;;5.07;;
19016;SDS011;9641;51.494;6.670;2023-08-20T01:36:38;12.68;;;4.95;;
19016;SDS011;9641;51.494;6.670;2023-08-20T01:39:05;7.30;;;4.65;;
19016;SDS011;9641;51.494;6.670;2023-08-20T01:41:33;5.50;;;4.15;;
19016;SDS011;9641;51.494;6.670;2023-08-20T01:44:00;7.45;;;4.55;;
19016;SDS011;9641;51.494;6.670;2023-08-20T01:46:29;10.57;;;4.90;;
19016;SDS011;9641;51.494;6.670;2023-08-20T01:48:56;10.27;;;4.85;;
19016;SDS011;9641;51.494;6.670;2023-08-20T01:51:24;5.38;;;3.90;;
19016;SDS011;9641;51.494;6.670;2023-08-20T01:53:51;10.07;;;4.60;;
19016;SDS011;9641;51.494;6.670;2023-08-20T01:56:19;13.02;;;4.60;;
19016;SDS011;9641;51.494;6.670;2023-08-20T01:58:46;10.30;;;5.03;;
19016;SDS011;9641;51.494;6.670;2023-08-20T02:01:14;9.48;;;5.03;;
19016;SDS011;9641;51.494;6.670;2023-08-20T02:03:43;6.32;;;5.22;;
19016;SDS011;9641;51.494;6.670;2023-08-20T02:06:10;9.40;;;5.40;;
19016;SDS011;9641;51.494;6.670;2023-08-20T02:08:37;7.55;;;5.20;;
19016;SDS011;9641;51.494;6.670;2023-08-20T02:11:04;13.48;;;6.05;;
19016;SDS011;9641;51.494;6.670;2023-08-20T02:13:31;8.25;;;5.43;;
19016;SDS011;9641;51.494;6.670;2023-08-20T02:16:00;9.95;;;5.68;;
19016;SDS011;9641;51.494;6.670;2023-08-20T02:18:27;7.68;;;5.32;;
19016;SDS011;9641;51.494;6.670;2023-08-20T02:20:55;13.07;;;5.15;;
19016;SDS011;9641;51.494;6.670;2023-08-20T02:23:23;7.93;;;5.55;;
19016;SDS011;9641;51.494;6.670;2023-08-20T02:25:50;8.38;;;5.47;;
19016;SDS011;9641;51.494;6.670;2023-08-20T02:28:18;6.15;;;4.93;;
19016;SDS011;9641;51.494;6.670;2023-08-20T02:30:46;8.05;;;5.97;;
19016;SDS011;9641;51.494;6.670;2023-08-20T02:33:13;11.88;;;5.82;;
19016;SDS011;9641;51.494;6.670;2023-08-20T02:35:40;9.65;;;5.90;;
19016;SDS011;9641;51.494;6.670;2023-08-20T02:38:09;11.73;;;6.65;;
19016;SDS011;9641;51.494;6.670;2023-08-20T02:40:43;9.30;;;6.15;;
19016;SDS011;9641;51.494;6.670;2023-08-20T02:43:11;13.40;;;6.97;;
19016;SDS011;9641;51.494;6.670;2023-08-20T02:45:41;6.63;;;5.85;;
19016;SDS011;9641;51.494;6.670;2023-08-20T02:48:09;7.68;;;6.60;;
19016;SDS011;9641;51.494;6.670;2023-08-20T02:50:37;15.88;;;6.15;;
19016;SDS011;9641;51.494;6.670;2023-08-20T02:53:04;10.88;;;5.82;;
19016;SDS011;9641;51.494;6.670;2023-08-20T02:55:37;12.90;;;6.10;;
19016;SDS011;9641;51.494;6.670;2023-08-20T02:58:04;13.93;;;6.28;;
19016;SDS011;9641;51.494;6.670;2023-08-20T03:00:32;12.20;;;6.13;;
19016;SDS011;9641;51.494;6.670;2023-08-20T03:02:59;7.32;;;5.90;;
19016;SDS011;9641;51.494;6.670;2023-08-20T03:05:29;12.02;;;6.35;;
19016;SDS011;9641;51.494;6.670;2023-08-20T03:07:56;8.23;;;6.50;;
19016;SDS011;9641;51.494;6.670;2023-08-20T03:10:23;9.07;;;6.82;;
19016;SDS011;9641;51.494;6.670;2023-08-20T03:12:51;14.80;;;7.80;;
19016;SDS011;9641;51.494;6.670;2023-08-20T03:15:18;10.18;;;7.18;;
19016;SDS011;9641;51.494;6.670;2023-08-20T03:17:45;12.00;;;6.80;;
19016;SDS011;9641;51.494;6.670;2023-08-20T03:20:12;9.05;;;6.72;;
19016;SDS011;9641;51.494;6.670;2023-08-20T03:22:39;8.93;;;6.57;;
19016;SDS011;9641;51.494;6.670;2023-08-20T03:25:06;9.23;;;5.93;;
19016;SDS011;9641;51.494;6.670;2023-08-20T03:27:33;8.82;;;6.65;;
19016;SDS011;9641;51.494;6.670;2023-08-20T03:30:02;8.68;;;4.85;;
19016;SDS011;9641;51.494;6.670;2023-08-20T03:32:31;11.38;;;5.05;;
19016;SDS011;9641;51.494;6.670;2023-08-20T03:34:58;10.63;;;6.13;;
19016;SDS011;9641;51.494;6.670;2023-08-20T03:37:25;10.20;;;6.35;;
19016;SDS011;9641;51.494;6.670;2023-08-20T03:39:52;7.78;;;6.25;;
19016;SDS011;9641;51.494;6.670;2023-08-20T03:42:19;7.65;;;5.40;;
19016;SDS011;9641;51.494;6.670;2023-08-20T03:44:47;7.82;;;5.57;;
19016;SDS011;9641;51.494;6.670;2023-08-20T03:47:16;11.68;;;7.40;;
19016;SDS011;9641;51.494;6.670;2023-08-20T03:49:45;14.27;;;8.02;;
19016;SDS011;9641;51.494;6.670;2023-08-20T03:52:12;9.73;;;6.93;;
19016;SDS011;9641;51.494;6.670;2023-08-20T03:54:39;8.13;;;6.35;;
19016;SDS011;9641;51.494;6.670;2023-08-20T03:57:05;8.52;;;6.88;;
19016;SDS011;9641;51.494;6.670;2023-08-20T03:59:32;12.50;;;6.72;;
19016;SDS011;9641;51.494;6.670;2023-08-20T04:01:59;9.68;;;6.63;;
19016;SDS011;9641;51.494;6.670;2023-08-20T04:04:27;11.80;;;6.93;;
19016;SDS011;9641;51.494;6.670;2023-08-20T04:06:54;9.75;;;6.95;;
19016;SDS011;9641;51.494;6.670;2023-08-20T04:09:21;6.97;;;5.80;;
19016;SDS011;9641;51.494;6.670;2023-08-20T04:11:48;8.98;;;6.57;;
19016;SDS011;9641;51.494;6.670;2023-08-20T04:14:15;10.65;;;6.65;;
19016;SDS011;9641;51.494;6.670;2023-08-20T04:16:42;8.13;;;6.35;;
19016;SDS011;9641;51.494;6.670;2023-08-20T04:19:09;6.82;;;5.85;;
19016;SDS011;9641;51.494;6.670;2023-08-20T04:21:37;11.10;;;6.90;;
19016;SDS011;9641;51.494;6.670;2023-08-20T04:24:04;9.73;;;5.95;;
19016;SDS011;9641;51.494;6.670;2023-08-20T04:26:32;11.85;;;5.68;;
19016;SDS011;9641;51.494;6.670;2023-08-20T04:28:59;8.15;;;5.95;;
19016;SDS011;9641;51.494;6.670;2023-08-20T04:31:26;6.30;;;5.47;;
19016;SDS011;9641;51.494;6.670;2023-08-20T04:34:04;11.05;;;5.85;;
19016;SDS011;9641;51.494;6.670;2023-08-20T04:36:43;7.28;;;6.07;;
19016;SDS011;9641;51.494;6.670;2023-08-20T04:39:10;9.32;;;6.00;;
19016;SDS011;9641;51.494;6.670;2023-08-20T04:41:42;8.30;;;5.80;;
19016;SDS011;9641;51.494;6.670;2023-08-20T04:44:13;8.10;;;5.22;;
19016;SDS011;9641;51.494;6.670;2023-08-20T04:46:41;11.90;;;6.03;;
19016;SDS011;9641;51.494;6.670;2023-08-20T04:49:09;6.70;;;5.70;;
19016;SDS011;9641;51.494;6.670;2023-08-20T04:51:38;9.90;;;5.95;;
19016;SDS011;9641;51.494;6.670;2023-08-20T04:54:06;13.20;;;6.50;;
19016;SDS011;9641;51.494;6.670;2023-08-20T04:56:33;7.75;;;6.85;;
19016;SDS011;9641;51.494;6.670;2023-08-20T04:59:00;9.65;;;6.45;;
19016;SDS011;9641;51.494;6.670;2023-08-20T05:01:45;8.65;;;6.70;;
19016;SDS011;9641;51.494;6.670;2023-08-20T05:04:13;8.07;;;6.22;;
19016;SDS011;9641;51.494;6.670;2023-08-20T05:06:40;8.95;;;6.63;;
19016;SDS011;9641;51.494;6.670;2023-08-20T05:09:09;9.77;;;6.85;;
19016;SDS011;9641;51.494;6.670;2023-08-20T05:11:35;10.55;;;7.18;;
19016;SDS011;9641;51.494;6.670;2023-08-20T05:14:03;10.23;;;7.05;;
19016;SDS011;9641;51.494;6.670;2023-08-20T05:16:30;8.95;;;6.03;;
19016;SDS011;9641;51.494;6.670;2023-08-20T05:18:57;7.93;;;6.28;;
19016;SDS011;9641;51.494;6.670;2023-08-20T05:21:23;7.50;;;6.05;;
19016;SDS011;9641;51.494;6.670;2023-08-20T05:23:51;8.27;;;6.70;;
19016;SDS011;9641;51.494;6.670;2023-08-20T05:26:19;7.60;;;6.70;;
19016;SDS011;9641;51.494;6.670;2023-08-20T05:28:47;7.47;;;6.05;;
19016;SDS011;9641;51.494;6.670;2023-08-20T05:31:14;8.23;;;5.95;;
19016;SDS011;9641;51.494;6.670;2023-08-20T05:33:41;7.75;;;6.00;;
19016;SDS011;9641;51.494;6.670;2023-08-20T05:36:08;7.95;;;5.80;;
19016;SDS011;9641;51.494;6.670;2023-08-20T05:38:35;6.93;;;5.22;;
19016;SDS011;9641;51.494;6.670;2023-08-20T05:41:02;7.75;;;5.78;;
19016;SDS011;9641;51.494;6.670;2023-08-20T05:43:31;9.75;;;6.32;;
19016;SDS011;9641;51.494;6.670;2023-08-20T05:45:58;6.80;;;5.75;;
19016;SDS011;9641;51.494;6.670;2023-08-20T05:48:25;9.30;;;6.07;;
19016;SDS011;9641;51.494;6.670;2023-08-20T05:50:51;6.38;;;5.57;;
19016;SDS011;9641;51.494;6.670;2023-08-20T05:53:19;11.98;;;6.53;;
19016;SDS011;9641;51.494;6.670;2023-08-20T05:55:46;8.35;;;6.47;;
19016;SDS011;9641;51.494;6.670;2023-08-20T05:58:13;7.72;;;6.65;;
19016;SDS011;9641;51.494;6.670;2023-08-20T06:00:41;8.15;;;6.13;;
19016;SDS011;9641;51.494;6.670;2023-08-20T06:03:08;9.00;;;6.82;;
19016;SDS011;9641;51.494;6.670;2023-08-20T06:05:35;11.73;;;8.10;;
19016;SDS011;9641;51.494;6.670;2023-08-20T06:08:02;12.05;;;9.10;;
19016;SDS011;9641;51.494;6.670;2023-08-20T06:10:29;12.70;;;8.77;;
19016;SDS011;9641;51.494;6.670;2023-08-20T06:12:56;14.35;;;9.82;;
19016;SDS011;9641;51.494;6.670;2023-08-20T06:15:23;13.13;;;10.05;;
19016;SDS011;9641;51.494;6.670;2023-08-20T06:17:51;13.02;;;10.05;;
19016;SDS011;9641;51.494;6.670;2023-08-20T06:20:18;15.98;;;10.30;;
19016;SDS011;9641;51.494;6.670;2023-08-20T06:22:45;15.00;;;11.35;;
19016;SDS011;9641;51.494;6.670;2023-08-20T06:25:11;18.35;;;13.18;;
19016;SDS011;9641;51.494;6.670;2023-08-20T06:27:38;22.55;;;12.48;;
19016;SDS011;9641;51.494;6.670;2023-08-20T06:30:06;19.45;;;12.57;;
19016;SDS011;9641;51.494;6.670;2023-08-20T06:32:33;17.13;;;10.93;;
19016;SDS011;9641;51.494;6.670;2023-08-20T06:35:02;14.43;;;10.48;;
19016;SDS011;9641;51.494;6.670;2023-08-20T06:37:29;14.10;;;9.93;;
19016;SDS011;9641;51.494;6.670;2023-08-20T06:39:56;14.02;;;10.00;;
19016;SDS011;9641;51.494;6.670;2023-08-20T06:42:23;13.93;;;10.48;;
19016;SDS011;9641;51.494;6.670;2023-08-20T06:44:50;15.25;;;11.05;;
19016;SDS011;9641;51.494;6.670;2023-08-20T06:47:17;17.80;;;13.50;;
19016;SDS011;9641;51.494;6.670;2023-08-20T06:49:43;17.55;;;12.10;;
19016;SDS011;9641;51.494;6.670;2023-08-20T06:55:08;23.58;;;14.55;;
19016;SDS011;9641;51.494;6.670;2023-08-20T06:57:35;18.75;;;12.25;;
19016;SDS011;9641;51.494;6.670;2023-08-20T07:00:02;16.25;;;12.07;;
19016;SDS011;9641;51.494;6.670;2023-08-20T07:02:30;15.40;;;12.45;;
19016;SDS011;9641;51.494;6.670;2023-08-20T07:04:57;20.83;;;13.00;;
19016;SDS011;9641;51.494;6.670;2023-08-20T07:07:24;21.58;;;14.23;;
19016;SDS011;9641;51.494;6.670;2023-08-20T07:09:52;21.77;;;15.82;;
19016;SDS011;9641;51.494;6.670;2023-08-20T07:12:19;29.17;;;16.65;;
19016;SDS011;9641;51.494;6.670;2023-08-20T07:14:46;28.13;;;15.48;;
19016;SDS011;9641;51.494;6.670;2023-08-20T07:17:13;22.35;;;14.43;;
19016;SDS011;9641;51.494;6.670;2023-08-20T07:19:39;23.35;;;15.10;;
19016;SDS011;9641;51.494;6.670;2023-08-20T07:22:06;25.80;;;16.70;;
19016;SDS011;9641;51.494;6.670;2023-08-20T07:24:33;27.60;;;16.00;;
19016;SDS011;9641;51.494;6.670;2023-08-20T07:27:01;32.70;;;19.63;;
19016;SDS011;9641;51.494;6.670;2023-08-20T07:29:35;28.92;;;17.88;;
19016;SDS011;9641;51.494;6.670;2023-08-20T07:32:02;29.55;;;18.40;;
19016;SDS011;9641;51.494;6.670;2023-08-20T07:34:30;29.55;;;18.80;;
19016;SDS011;9641;51.494;6.670;2023-08-20T07:36:58;28.52;;;16.40;;
19016;SDS011;9641;51.494;6.670;2023-08-20T07:39:25;24.70;;;15.50;;
19016;SDS011;9641;51.494;6.670;2023-08-20T07:41:52;23.52;;;15.98;;
19016;SDS011;9641;51.494;6.670;2023-08-20T07:44:20;28.98;;;16.35;;
19016;SDS011;9641;51.494;6.670;2023-08-20T07:46:47;21.42;;;15.15;;
19016;SDS011;9641;51.494;6.670;2023-08-20T07:49:14;26.60;;;15.88;;
19016;SDS011;9641;51.494;6.670;2023-08-20T07:51:41;21.20;;;14.68;;
19016;SDS011;9641;51.494;6.670;2023-08-20T07:54:08;20.40;;;12.45;;
19016;SDS011;9641;51.494;6.670;2023-08-20T07:56:34;18.85;;;12.95;;
19016;SDS011;9641;51.494;6.670;2023-08-20T07:59:01;24.17;;;14.68;;
19016;SDS011;9641;51.494;6.670;2023-08-20T08:01:29;19.45;;;12.68;;
19016;SDS011;9641;51.494;6.670;2023-08-20T08:03:56;20.73;;;12.20;;
19016;SDS011;9641;51.494;6.670;2023-08-20T08:06:23;22.10;;;13.32;;
19016;SDS011;9641;51.494;6.670;2023-08-20T08:08:50;22.83;;;13.40;;
19016;SDS011;9641;51.494;6.670;2023-08-20T08:11:17;23.80;;;13.43;;
19016;SDS011;9641;51.494;6.670;2023-08-20T08:13:43;23.95;;;15.68;;
19016;SDS011;9641;51.494;6.670;2023-08-20T08:16:10;19.55;;;13.27;;
19016;SDS011;9641;51.494;6.670;2023-08-20T08:18:38;23.70;;;14.68;;
19016;SDS011;9641;51.494;6.670;2023-08-20T08:21:05;21.58;;;15.60;;
19016;SDS011;9641;51.494;6.670;2023-08-20T08:23:32;25.95;;;17.02;;
19016;SDS011;9641;51.494;6.670;2023-08-20T08:25:59;26.83;;;17.65;;
19016;SDS011;9641;51.494;6.670;2023-08-20T08:28:26;26.08;;;17.50;;
19016;SDS011;9641;51.494;6.670;2023-08-20T08:30:52;25.65;;;16.92;;
19016;SDS011;9641;51.494;6.670;2023-08-20T08:33:19;27.48;;;16.38;;
19016;SDS011;9641;51.494;6.670;2023-08-20T08:35:47;29.30;;;19.15;;
19016;SDS011;9641;51.494;6.670;2023-08-20T08:38:14;22.23;;;16.65;;
19016;SDS011;9641;51.494;6.670;2023-08-20T08:40:41;35.45;;;21.75;;
19016;SDS011;9641;51.494;6.670;2023-08-20T08:43:10;27.85;;;17.17;;
19016;SDS011;9641;51.494;6.670;2023-08-20T08:45:41;21.98;;;14.43;;
19016;SDS011;9641;51.494;6.670;2023-08-20T08:48:11;28.77;;;19.50;;
19016;SDS011;9641;51.494;6.670;2023-08-20T08:50:39;26.58;;;19.17;;
19016;SDS011;9641;51.494;6.670;2023-08-20T08:53:07;29.55;;;19.58;;
19016;SDS011;9641;51.494;6.670;2023-08-20T08:55:34;25.88;;;17.35;;
19016;SDS011;9641;51.494;6.670;2023-08-20T08:58:02;24.77;;;18.08;;
19016;SDS011;9641;51.494;6.670;2023-08-20T09:00:29;20.60;;;13.75;;
19016;SDS011;9641;51.494;6.670;2023-08-20T09:02:57;21.67;;;15.13;;
19016;SDS011;9641;51.494;6.670;2023-08-20T09:05:24;31.00;;;18.67;;
19016;SDS011;9641;51.494;6.670;2023-08-20T09:07:54;23.45;;;17.05;;
19016;SDS011;9641;51.494;6.670;2023-08-20T09:10:26;25.27;;;16.55;;
19016;SDS011;9641;51.494;6.670;2023-08-20T09:12:54;19.35;;;13.98;;
19016;SDS011;9641;51.494;6.670;2023-08-20T09:15:21;21.95;;;14.80;;
19016;SDS011;9641;51.494;6.670;2023-08-20T09:17:59;20.27;;;14.70;;
19016;SDS011;9641;51.494;6.670;2023-08-20T09:20:33;22.80;;;14.77;;
19016;SDS011;9641;51.494;6.670;2023-08-20T09:23:00;17.85;;;12.77;;
19016;SDS011;9641;51.494;6.670;2023-08-20T09:25:28;15.52;;;11.77;;
19016;SDS011;9641;51.494;6.670;2023-08-20T09:27:55;18.27;;;11.80;;
19016;SDS011;9641;51.494;6.670;2023-08-20T09:30:22;16.60;;;12.15;;
19016;SDS011;9641;51.494;6.670;2023-08-20T09:33:02;17.85;;;13.55;;
19016;SDS011;9641;51.494;6.670;2023-08-20T09:35:30;18.83;;;12.52;;
19016;SDS011;9641;51.494;6.670;2023-08-20T09:38:00;18.98;;;13.15;;
19016;SDS011;9641;51.494;6.670;2023-08-20T09:40:30;15.60;;;10.65;;
19016;SDS011;9641;51.494;6.670;2023-08-20T09:42:57;15.60;;;10.90;;
19016;SDS011;9641;51.494;6.670;2023-08-20T09:45:25;16.67;;;11.18;;
19016;SDS011;9641;51.494;6.670;2023-08-20T09:47:55;17.90;;;11.60;;
19016;SDS011;9641;51.494;6.670;2023-08-20T09:50:24;17.50;;;11.57;;
19016;SDS011;9641;51.494;6.670;2023-08-20T09:52:55;11.45;;;9.05;;
19016;SDS011;9641;51.494;6.670;2023-08-20T09:55:28;11.43;;;9.30;;
19016;SDS011;9641;51.494;6.670;2023-08-20T09:58:00;12.25;;;9.93;;
19016;SDS011;9641;51.494;6.670;2023-08-20T10:00:29;11.70;;;9.52;;
19016;SDS011;9641;51.494;6.670;2023-08-20T10:02:56;13.48;;;9.50;;
19016;SDS011;9641;51.494;6.670;2023-08-20T10:05:24;10.43;;;8.85;;
19016;SDS011;9641;51.494;6.670;2023-08-20T10:07:53;18.05;;;10.43;;
19016;SDS011;9641;51.494;6.670;2023-08-20T10:10:21;11.65;;;8.93;;
19016;SDS011;9641;51.494;6.670;2023-08-20T10:12:49;11.35;;;8.30;;
19016;SDS011;9641;51.494;6.670;2023-08-20T10:15:16;13.50;;;8.45;;
19016;SDS011;9641;51.494;6.670;2023-08-20T10:17:44;13.43;;;10.25;;
19016;SDS011;9641;51.494;6.670;2023-08-20T10:20:13;13.20;;;8.73;;
19016;SDS011;9641;51.494;6.670;2023-08-20T10:22:45;10.25;;;8.73;;
19016;SDS011;9641;51.494;6.670;2023-08-20T10:25:12;11.80;;;8.60;;
19016;SDS011;9641;51.494;6.670;2023-08-20T10:27:50;13.13;;;9.13;;
19016;SDS011;9641;51.494;6.670;2023-08-20T10:30:18;17.08;;;11.15;;
19016;SDS011;9641;51.494;6.670;2023-08-20T10:32:47;16.95;;;11.23;;
19016;SDS011;9641;51.494;6.670;2023-08-20T10:35:15;29.73;;;16.20;;
19016;SDS011;9641;51.494;6.670;2023-08-20T10:38:03;27.02;;;12.15;;
19016;SDS011;9641;51.494;6.670;2023-08-20T10:40:47;19.25;;;10.95;;
19016;SDS011;9641;51.494;6.670;2023-08-20T10:46:28;17.20;;;10.60;;
19016;SDS011;9641;51.494;6.670;2023-08-20T10:49:04;14.38;;;9.25;;
19016;SDS011;9641;51.494;6.670;2023-08-20T10:51:32;12.93;;;10.02;;
19016;SDS011;9641;51.494;6.670;2023-08-20T10:54:06;12.13;;;7.80;;
19016;SDS011;9641;51.494;6.670;2023-08-20T10:56:42;12.05;;;7.80;;
19016;SDS011;9641;51.494;6.670;2023-08-20T10:59:13;10.15;;;6.88;;
19016;SDS011;9641;51.494;6.670;2023-08-20T11:01:49;11.10;;;6.50;;
19016;SDS011;9641;51.494;6.670;2023-08-20T11:04:17;11.77;;;8.07;;
19016;SDS011;9641;51.494;6.670;2023-08-20T11:06:49;7.53;;;6.43;;
19016;SDS011;9641;51.494;6.670;2023-08-20T11:09:23;6.28;;;5.20;;
19016;SDS011;9641;51.494;6.670;2023-08-20T11:11:53;7.57;;;5.15;;
19016;SDS011;9641;51.494;6.670;2023-08-20T11:14:29;6.22;;;4.32;;
19016;SDS011;9641;51.494;6.670;2023-08-20T11:16:58;8.57;;;4.63;;
19016;SDS011;9641;51.494;6.670;2023-08-20T11:19:25;5.55;;;4.68;;
19016;SDS011;9641;51.494;6.670;2023-08-20T11:21:52;7.80;;;4.53;;
19016;SDS011;9641;51.494;6.670;2023-08-20T11:24:20;7.45;;;3.95;;
19016;SDS011;9641;51.494;6.670;2023-08-20T11:26:48;7.63;;;3.92;;
19016;SDS011;9641;51.494;6.670;2023-08-20T11:29:15;7.25;;;4.10;;
19016;SDS011;9641;51.494;6.670;2023-08-20T11:34:31;5.53;;;3.67;;
19016;SDS011;9641;51.494;6.670;2023-08-20T11:37:00;5.45;;;3.30;;
19016;SDS011;9641;51.494;6.670;2023-08-20T11:39:30;5.07;;;3.00;;
19016;SDS011;9641;51.494;6.670;2023-08-20T11:41:57;3.92;;;2.97;;
19016;SDS011;9641;51.494;6.670;2023-08-20T11:44:26;3.00;;;2.58;;
19016;SDS011;9641;51.494;6.670;2023-08-20T11:46:56;5.30;;;3.00;;
19016;SDS011;9641;51.494;6.670;2023-08-20T11:49:29;5.28;;;2.88;;
19016;SDS011;9641;51.494;6.670;2023-08-20T11:54:50;8.02;;;2.75;;
19016;SDS011;9641;51.494;6.670;2023-08-20T11:57:31;6.00;;;3.03;;
19016;SDS011;9641;51.494;6.670;2023-08-20T11:59:59;7.07;;;3.30;;
19016;SDS011;9641;51.494;6.670;2023-08-20T12:02:40;5.03;;;2.47;;
19016;SDS011;9641;51.494;6.670;2023-08-20T12:05:08;5.60;;;2.35;;
19016;SDS011;9641;51.494;6.670;2023-08-20T12:07:37;5.53;;;2.70;;
19016;SDS011;9641;51.494;6.670;2023-08-20T12:10:18;3.55;;;2.38;;
19016;SDS011;9641;51.494;6.670;2023-08-20T12:12:47;4.40;;;2.35;;
19016;SDS011;9641;51.494;6.670;2023-08-20T12:15:14;5.18;;;2.10;;
19016;SDS011;9641;51.494;6.670;2023-08-20T12:17:41;4.22;;;2.05;;
19016;SDS011;9641;51.494;6.670;2023-08-20T12:20:10;3.10;;;2.00;;
19016;SDS011;9641;51.494;6.670;2023-08-20T12:22:37;5.22;;;2.30;;
19016;SDS011;9641;51.494;6.670;2023-08-20T12:25:04;7.43;;;2.58;;
19016;SDS011;9641;51.494;6.670;2023-08-20T12:27:32;5.32;;;2.30;;
19016;SDS011;9641;51.494;6.670;2023-08-20T12:29:59;6.07;;;2.50;;
19016;SDS011;9641;51.494;6.670;2023-08-20T12:32:26;4.63;;;2.00;;
19016;SDS011;9641;51.494;6.670;2023-08-20T12:34:53;3.38;;;2.00;;
19016;SDS011;9641;51.494;6.670;2023-08-20T12:37:21;5.05;;;2.17;;
19016;SDS011;9641;51.494;6.670;2023-08-20T12:39:48;9.00;;;2.30;;
19016;SDS011;9641;51.494;6.670;2023-08-20T12:42:15;4.93;;;2.35;;
19016;SDS011;9641;51.494;6.670;2023-08-20T12:44:42;5.60;;;2.30;;
19016;SDS011;9641;51.494;6.670;2023-08-20T12:47:08;4.53;;;2.00;;
19016;SDS011;9641;51.494;6.670;2023-08-20T12:49:35;5.18;;;2.15;;
19016;SDS011;9641;51.494;6.670;2023-08-20T12:52:02;3.63;;;1.83;;
19016;SDS011;9641;51.494;6.670;2023-08-20T12:54:30;6.00;;;1.90;;
19016;SDS011;9641;51.494;6.670;2023-08-20T12:56:57;6.20;;;1.90;;
19016;SDS011;9641;51.494;6.670;2023-08-20T12:59:24;4.00;;;1.60;;
19016;SDS011;9641;51.494;6.670;2023-08-20T13:01:51;5.97;;;1.80;;
19016;SDS011;9641;51.494;6.670;2023-08-20T13:04:18;4.93;;;1.92;;
19016;SDS011;9641;51.494;6.670;2023-08-20T13:06:45;4.88;;;2.10;;
19016;SDS011;9641;51.494;6.670;2023-08-20T13:09:13;5.00;;;1.70;;
19016;SDS011;9641;51.494;6.670;2023-08-20T13:11:42;4.05;;;1.50;;
19016;SDS011;9641;51.494;6.670;2023-08-20T13:14:13;4.57;;;2.00;;
19016;SDS011;9641;51.494;6.670;2023-08-20T13:16:40;5.13;;;1.80;;
19016;SDS011;9641;51.494;6.670;2023-08-20T13:19:08;4.15;;;1.70;;
19016;SDS011;9641;51.494;6.670;2023-08-20T13:21:35;2.75;;;1.60;;
19016;SDS011;9641;51.494;6.670;2023-08-20T13:24:02;5.00;;;1.90;;
19016;SDS011;9641;51.494;6.670;2023-08-20T13:26:29;3.58;;;1.73;;
19016;SDS011;9641;51.494;6.670;2023-08-20T13:28:57;5.05;;;1.60;;
19016;SDS011;9641;51.494;6.670;2023-08-20T13:31:24;2.75;;;1.77;;
19016;SDS011;9641;51.494;6.670;2023-08-20T13:33:51;2.83;;;1.40;;
19016;SDS011;9641;51.494;6.670;2023-08-20T13:36:18;2.83;;;1.70;;
19016;SDS011;9641;51.494;6.670;2023-08-20T13:38:45;5.38;;;1.80;;
19016;SDS011;9641;51.494;6.670;2023-08-20T13:41:12;2.50;;;1.45;;
19016;SDS011;9641;51.494;6.670;2023-08-20T13:43:39;3.33;;;1.50;;
19016;SDS011;9641;51.494;6.670;2023-08-20T13:46:07;4.28;;;1.92;;
19016;SDS011;9641;51.494;6.670;2023-08-20T13:48:34;5.80;;;1.67;;
19016;SDS011;9641;51.494;6.670;2023-08-20T13:51:01;5.25;;;1.73;;
19016;SDS011;9641;51.494;6.670;2023-08-20T13:53:28;7.50;;;2.60;;
19016;SDS011;9641;51.494;6.670;2023-08-20T13:55:55;5.55;;;2.13;;
19016;SDS011;9641;51.494;6.670;2023-08-20T13:58:21;5.63;;;1.50;;
19016;SDS011;9641;51.494;6.670;2023-08-20T14:00:48;2.83;;;1.80;;
19016;SDS011;9641;51.494;6.670;2023-08-20T14:03:16;6.93;;;2.75;;
19016;SDS011;9641;51.494;6.670;2023-08-20T14:05:43;7.53;;;3.13;;
19016;SDS011;9641;51.494;6.670;2023-08-20T14:08:10;6.72;;;2.75;;
19016;SDS011;9641;51.494;6.670;2023-08-20T14:10:37;4.15;;;1.88;;
19016;SDS011;9641;51.494;6.670;2023-08-20T14:13:04;3.78;;;1.95;;
19016;SDS011;9641;51.494;6.670;2023-08-20T14:15:31;2.08;;;1.50;;
19016;SDS011;9641;51.494;6.670;2023-08-20T14:17:58;4.07;;;1.95;;
19016;SDS011;9641;51.494;6.670;2023-08-20T14:20:26;2.47;;;1.73;;
19016;SDS011;9641;51.494;6.670;2023-08-20T14:22:53;4.03;;;1.55;;
19016;SDS011;9641;51.494;6.670;2023-08-20T14:25:20;4.03;;;1.48;;
19016;SDS011;9641;51.494;6.670;2023-08-20T14:27:47;4.25;;;1.70;;
19016;SDS011;9641;51.494;6.670;2023-08-20T14:30:17;5.18;;;1.70;;
19016;SDS011;9641;51.494;6.670;2023-08-20T14:32:45;5.85;;;1.80;;
19016;SDS011;9641;51.494;6.670;2023-08-20T14:35:11;4.53;;;1.48;;
19016;SDS011;9641;51.494;6.670;2023-08-20T14:37:40;2.80;;;1.35;;
19016;SDS011;9641;51.494;6.670;2023-08-20T14:40:08;3.38;;;1.45;;
19016;SDS011;9641;51.494;6.670;2023-08-20T14:42:36;4.60;;;1.52;;
19016;SDS011;9641;51.494;6.670;2023-08-20T14:45:04;4.13;;;1.35;;
19016;SDS011;9641;51.494;6.670;2023-08-20T14:47:31;4.68;;;1.40;;
19016;SDS011;9641;51.494;6.670;2023-08-20T14:49:58;2.78;;;1.20;;
19016;SDS011;9641;51.494;6.670;2023-08-20T14:52:25;5.00;;;1.77;;
19016;SDS011;9641;51.494;6.670;2023-08-20T14:54:54;3.80;;;1.40;;
19016;SDS011;9641;51.494;6.670;2023-08-20T14:57:21;3.50;;;1.38;;
19016;SDS011;9641;51.494;6.670;2023-08-20T14:59:50;2.67;;;1.38;;
19016;SDS011;9641;51.494;6.670;2023-08-20T15:02:17;7.18;;;1.55;;
19016;SDS011;9641;51.494;6.670;2023-08-20T15:04:44;3.70;;;1.45;;
19016;SDS011;9641;51.494;6.670;2023-08-20T15:07:11;5.15;;;1.60;;
19016;SDS011;9641;51.494;6.670;2023-08-20T15:09:38;3.47;;;1.60;;
19016;SDS011;9641;51.494;6.670;2023-08-20T15:12:11;1.90;;;1.13;;
19016;SDS011;9641;51.494;6.670;2023-08-20T15:14:39;1.77;;;0.95;;